Laurence M. Gould — WCX7445 — position and weather

sailwx.info

Track history (hours):
 
Tides and Currents Weather Stations Pressure Air Temp Water Temp Dewpoint Dewpoint Depression Visibility Wind Speed Wind Dir Waves Ship Positions

Oceanographic research ship Laurence M. Gould (USA)

Detailed information on ship capabilities available from University of Delaware's Ocean Information Center.

Owner: Offshore Service Vessels LLC, Cut Off, LA. More information available from US FCC via Universal Licensing System and Coast Guard Vessel Documentation Center.

Last reported at 2018-Apr-27 02:00 UTC. Time now 2018-Apr-27 02:47 UTC.
Position S 64°42' W 064°00'.

Type: Ship. MMSI: 368138000.

Wind from 250 at 13 knots

Barometer 996.9 mb
Air temperature -1.0 ° C
Dewpoint -2.5 ° C

Date/timePositionNaut miles runAvg speedWind from/ knotsBaromVisibWave heightAir tempDewpointWater temp
2018-Apr-27 02:00S 64°42' W 064°00'0 0.0 250 / 13996.9 -1.0-2.5
2018-Apr-27 01:00S 64°42' W 064°00'0 0.0 240 / 17996.8 -0.9-1.7
2018-Apr-27 00:00S 64°42' W 064°00'0 0.0 290 / 10996.8 0.3-0.4
2018-Apr-26 23:00S 64°42' W 064°00'0 0.0 300 / 9996.6 0.2-0.5
2018-Apr-26 22:00S 64°42' W 064°00'0 0.0 300 / 11996.6 0.2-0.6
2018-Apr-26 21:00S 64°42' W 064°00'0 0.0 330 / 14996.6 -0.3-1.6
2018-Apr-26 20:00S 64°42' W 064°00'0 0.0 340 / 11997.1 -0.2-2.3
2018-Apr-26 19:00S 64°42' W 064°00'0 0.0 340 / 8997.7 -0.3-3.0
2018-Apr-26 18:00S 64°42' W 064°00'0 0.0 350 / 9998.3 -0.7-4.0
2018-Apr-26 17:00S 64°42' W 064°00'0 0.0 350 / 7999.1 -1.3-4.8
2018-Apr-26 16:00S 64°42' W 064°00'0 0.0 340 / 51000.0 -1.8-5.5
2018-Apr-26 15:00S 64°42' W 064°00'0 0.0 010 / 31000.4 -2.4-6.2
2018-Apr-26 14:00S 64°42' W 064°00'0 0.0 200 / 11000.7 -1.8-6.4
2018-Apr-26 13:00S 64°42' W 064°00'0 0.0 230 / 51001.5 -2.2-6.9
2018-Apr-26 12:00S 64°42' W 064°00'0 0.0 240 / 101001.8 -2.6-6.6
2018-Apr-26 11:00S 64°42' W 064°00'0 0.0 240 / 111001.8 -2.8-7.2
2018-Apr-26 10:00S 64°42' W 064°00'0 0.0 230 / 111002.1 -3.0-7.3
2018-Apr-26 09:00S 64°42' W 064°00'0 0.0 230 / 111002.1 -3.0-7.2
2018-Apr-26 08:00S 64°42' W 064°00'0 0.0 240 / 111002.4 -2.9-7.8
2018-Apr-26 07:00S 64°42' W 064°00'0 0.0 230 / 91002.4 -2.6-7.8
2018-Apr-26 06:00S 64°42' W 064°00'0 0.0 240 / 111002.2 -2.6-7.6
2018-Apr-26 05:00S 64°42' W 064°00'0 0.0 240 / 101002.2 -2.3-7.0
2018-Apr-26 04:00S 64°42' W 064°00'0 0.0 240 / 111002.6 -2.2-6.8
2018-Apr-26 03:00S 64°42' W 064°00'0 0.0 230 / 121002.6 -2.1-6.2
2018-Apr-26 02:00S 64°42' W 064°00'0 0.0 240 / 111002.5 -2.0-5.5
2018-Apr-26 01:00S 64°42' W 064°00'0 0.0 240 / 111002.3 -1.9-5.3
2018-Apr-26 00:00S 64°42' W 064°00'0 0.0 230 / 111002.5 -1.8-5.2
2018-Apr-25 23:00S 64°42' W 064°00'0 0.0 230 / 121002.2 -1.7-4.8
2018-Apr-25 22:00S 64°42' W 064°00'0 0.0 220 / 91002.2 -1.4-4.7
2018-Apr-25 21:00S 64°42' W 064°00'0 0.0 220 / 101002.1 -1.2-5.0
2018-Apr-25 20:00S 64°42' W 064°00'0 0.0 220 / 101002.0 -1.0-5.3
2018-Apr-25 19:00S 64°42' W 064°00'0 0.0 340 / 21001.7 -1.2-5.0
2018-Apr-25 18:00S 64°42' W 064°00'0 0.0 030 / 31001.3 -2.2-6.0
2018-Apr-25 17:00S 64°42' W 064°00'0 0.0 040 / 31000.9 -1.7-6.0
2018-Apr-25 16:00S 64°42' W 064°00'0 0.0 030 / 21000.6 -0.4-5.6
2018-Apr-25 15:00S 64°42' W 064°00'0 0.0 010 / 3999.9 -1.0-5.3
2018-Apr-25 14:00S 64°42' W 064°00'0 0.0 340 / 5999.1 -1.4-5.8
2018-Apr-25 13:00S 64°42' W 064°00'0 0.0 350 / 2998.5 -1.3-6.0
2018-Apr-25 12:00S 64°42' W 064°00'0 0.0 100 / 2997.9 -1.3-6.4
2018-Apr-25 11:00S 64°42' W 064°00'0 0.0 110 / 3997.4 -1.8-7.2
2018-Apr-25 10:00S 64°42' W 064°00'0 0.0 100 / 5997.1 -2.0-7.6
2018-Apr-25 09:00S 64°42' W 064°00'0 0.0 100 / 4996.8 -1.9-6.9
2018-Apr-25 08:00S 64°42' W 064°00'0 0.0 130 / 2996.7 -1.6-6.6
2018-Apr-25 07:00S 64°42' W 064°00'0 0.0 120 / 3996.6 -2.0-6.6
2018-Apr-25 06:00S 64°42' W 064°00'0 0.0 080 / 3996.7 -2.0-6.8
2018-Apr-25 05:00S 64°42' W 064°00'0 0.0 120 / 2996.9 -1.8-6.3
2018-Apr-25 04:00S 64°42' W 064°00'0 0.0 080 / 2996.9 -1.8-6.3
2018-Apr-25 03:00S 64°42' W 064°00'0 0.0 010 / 1997.1 -1.4-5.3
2018-Apr-25 02:00S 64°42' W 064°00'0 0.0 100 / 5997.0 -2.2-5.1
2018-Apr-25 01:00S 64°42' W 064°00'0 0.0 100 / 3997.1 -2.3-4.3
2018-Apr-25 00:00S 64°42' W 064°00'0 0.0 070 / 3997.3 -1.9-5.3
2018-Apr-24 23:00S 64°42' W 064°00'0 0.0 120 / 3997.0 -2.0-4.5
2018-Apr-24 22:00S 64°42' W 064°00'0 0.0 090 / 7996.8 -2.5-4.2
2018-Apr-24 21:00S 64°42' W 064°00'0 0.0 120 / 6996.7 -2.1-4.8
2018-Apr-24 20:00S 64°42' W 064°00'0 0.0 110 / 7996.3 -1.2-6.6
2018-Apr-24 19:00S 64°42' W 064°00'0 0.0 090 / 4996.1 -1.0-6.7
2018-Apr-24 18:00S 64°42' W 064°00'0 0.0 080 / 1996.0 -0.2-5.9
2018-Apr-24 17:00S 64°42' W 064°00'0 0.0 110 / 5995.8 -1.0-6.8
2018-Apr-24 16:00S 64°42' W 064°00'0 0.0 100 / 6995.5 -1.1-7.0
2018-Apr-24 15:00S 64°42' W 064°00'0 0.0 110 / 4995.3 -1.1-7.4
2018-Apr-24 14:00S 64°42' W 064°00'0 0.0 140 / 2995.1 -1.0-6.5
2018-Apr-24 13:00S 64°42' W 064°00'0 0.0 140 / 2994.9 -0.9-6.1
2018-Apr-24 12:00S 64°42' W 064°00'0 0.0 290 / 2994.5 -0.3-6.4
2018-Apr-24 11:00S 64°42' W 064°00'0 0.0 010 / 2994.1 -0.8-7.6
2018-Apr-24 10:00S 64°42' W 064°00'0 0.0 320 / 2993.8 -0.7-6.6
2018-Apr-24 09:00S 64°42' W 064°00'0 0.0 270 / 2993.5 -0.7-7.9
2018-Apr-24 08:00S 64°42' W 064°00'0 0.0 140 / 3993.2 -1.1-9.2
2018-Apr-24 07:00S 64°42' W 064°00'0 0.0 090 / 8992.9 -1.3-11.2
2018-Apr-24 06:00S 64°42' W 064°00'0 0.0 070 / 4992.6 -2.1-9.9
2018-Apr-24 05:00S 64°42' W 064°00'0 0.0 040 / 3992.3 -2.5-10.7
2018-Apr-24 04:00S 64°42' W 064°00'0 0.0 020 / 3991.8 -1.6-10.1
2018-Apr-24 03:00S 64°42' W 064°00'0 0.0 090 / 5991.2 -1.9-10.6
2018-Apr-24 02:00S 64°42' W 064°00'0 0.0 130 / 1990.7 -1.5-9.5
2018-Apr-24 01:00S 64°42' W 064°00'0 0.0 040 / 7990.2 -2.0-8.2
2018-Apr-24 00:00S 64°42' W 064°00'0 0.0 030 / 7989.5 -1.8-8.1
2018-Apr-23 23:00S 64°42' W 064°00'0 0.0 040 / 3988.8 -2.4-9.7
2018-Apr-23 22:00S 64°42' W 064°00'0 0.0 020 / 4988.0 -2.4-7.5
2018-Apr-23 21:00S 64°42' W 064°00'0 0.0 010 / 6987.1 -2.1-5.8
2018-Apr-23 20:00S 64°42' W 064°00'0 0.0 030 / 5986.4 -1.8-5.4
2018-Apr-23 19:00S 64°42' W 064°00'0 0.0 040 / 3985.7 -1.7-4.7
2018-Apr-23 18:00S 64°42' W 064°00'0 0.0 040 / 4985.0 -2.0-4.7
2018-Apr-23 17:00S 64°42' W 064°00'0 0.0 030 / 3984.2 -1.8-4.6
2018-Apr-23 16:00S 64°42' W 064°00'0 0.0 040 / 4983.6 -1.6-4.6
2018-Apr-23 15:00S 64°42' W 064°00'0 0.0 040 / 5983.0 -1.5-4.6
2018-Apr-23 14:00S 64°42' W 064°00'0 0.0 020 / 2982.5 -0.8-3.9
2018-Apr-23 13:00S 64°42' W 064°00'0 0.0 330 / 4981.8 -0.7-3.8
2018-Apr-23 12:00S 64°42' W 064°00'0 0.0 330 / 4981.1 -0.8-3.4
2018-Apr-23 11:00S 64°42' W 064°00'0 0.0 350 / 5980.6 -1.1-3.1
2018-Apr-23 10:00S 64°42' W 064°00'0 0.0 350 / 5979.9 -1.2-3.3
2018-Apr-23 09:00S 64°42' W 064°00'0 0.0 360 / 5979.2 -1.5-4.4
2018-Apr-23 08:00S 64°42' W 064°00'0 0.0 010 / 3978.7 -2.2-5.3
2018-Apr-23 07:00S 64°42' W 064°00'0 0.0 030 / 1978.2 -1.8-5.7
2018-Apr-23 06:00S 64°42' W 064°00'0 0.0 050 / 3977.6 -1.9-5.3
2018-Apr-23 05:00S 64°42' W 064°00'0 0.0 030 / 5977.1 -1.9-4.9
2018-Apr-23 04:00S 64°42' W 064°00'0 0.0 020 / 7976.6 -1.8-4.2
2018-Apr-23 03:00S 64°42' W 064°00'0 0.0 010 / 6976.3 -1.5-5.1
2018-Apr-23 02:00S 64°42' W 064°00'0 0.0 010 / 4976.0 -1.6-6.2
2018-Apr-23 01:00S 64°42' W 064°00'0 0.0 350 / 3975.7 -1.3-5.0
2018-Apr-23 00:00S 64°42' W 064°00'0 0.0 020 / 3975.4 -1.3-4.6
2018-Apr-22 23:00S 64°42' W 064°00'0 0.0 010 / 4975.1 -1.2-4.2
2018-Apr-22 22:00S 64°42' W 064°00'0 0.0 360 / 3975.2 -1.2-3.8
2018-Apr-22 21:00S 64°42' W 064°00'0 0.0 300 / 4974.9 -0.4-2.8
2018-Apr-22 20:00S 64°42' W 064°00'0 0.0 330 / 2974.5 0.3-2.4
2018-Apr-22 19:00S 64°42' W 064°00'0 0.0 190 / 8974.3 0.3-2.9
2018-Apr-22 18:00S 64°42' W 064°00'0 0.0 160 / 9974.5 0.4-3.3
2018-Apr-22 17:00S 64°42' W 064°00'0 0.0 140 / 6975.1 0.2-3.0
2018-Apr-22 16:00S 64°42' W 064°00'0 0.0 170 / 9975.5 -0.0-2.8
2018-Apr-22 15:00S 64°42' W 064°00'0 0.0 130 / 5976.2 -0.4-2.3
2018-Apr-22 14:00S 64°42' W 064°00'0 0.0 140 / 5976.7 -1.1-2.8
2018-Apr-22 13:00S 64°42' W 064°00'0 0.0 030 / 5977.3 -1.4-3.6-0.0
2018-Apr-22 12:00S 64°42' W 064°00'6 6.0 340 / 7977.8 0.6-2.1 0.1
2018-Apr-22 11:00S 64°48' W 064°00'3 2.6 240 / 5978.7 0.2-2.0 0.3
2018-Apr-22 10:00S 64°48' W 063°54'5 5.1 010 / 7979.7 -0.3-2.7 0.3
2018-Apr-22 09:00S 64°48' W 063°42'3 2.6 050 / 22980.0 -0.0-2.0 0.3
2018-Apr-22 08:00S 64°48' W 063°36'3 2.6 050 / 22981.0 0.1-2.0 0.2
2018-Apr-22 07:00S 64°48' W 063°30'7 6.5 050 / 5981.6 -0.0-2.7 0.2
2018-Apr-22 06:00S 64°42' W 063°24'3 2.6 010 / 6981.6 -0.3-3.0 0.2
2018-Apr-22 05:00S 64°42' W 063°18'3 2.6 050 / 16981.8 0.3-1.5 0.3
2018-Apr-22 04:00S 64°42' W 063°12'5 5.1 030 / 15982.3 -0.0-1.2 0.2
2018-Apr-22 03:00S 64°42' W 063°00'0 0.0 040 / 15982.9 1.1-0.5 0.2
2018-Apr-22 02:00S 64°42' W 063°00'0 0.0 060 / 14983.3 0.8-0.4 0.2
2018-Apr-22 01:00S 64°42' W 063°00'3 2.6 070 / 18983.2 0.6-0.4 0.2
2018-Apr-22 00:00S 64°42' W 063°06'8 7.9 050 / 13983.1 0.5-0.7 0.1
2018-Apr-21 23:00S 64°36' W 062°54'10 9.8 020 / 11983.2 -0.0-1.1 0.1
2018-Apr-21 22:00S 64°30' W 062°36'7 6.5 030 / 3982.9 1.2-0.8-0.0
2018-Apr-21 21:00S 64°24' W 062°42'1212.0 260 / 2982.4 1.6 0.1 0.1
2018-Apr-21 20:00S 64°12' W 062°42'6 6.0 120 / 5982.1 0.6-0.5 0.4
2018-Apr-21 19:00S 64°06' W 062°42'0 0.0 340 / 3982.4 0.9-0.6 0.4
2018-Apr-21 18:00S 64°06' W 062°42'0 0.0 060 / 5982.1 1.9-0.5 0.5
2018-Apr-21 17:00S 64°06' W 062°42'0 0.0 020 / 5981.6 1.6-0.3 0.7
2018-Apr-21 16:00S 64°06' W 062°42'6 6.0 320 / 4980.9 1.2-0.6 0.8
2018-Apr-21 15:00S 64°00' W 062°42'6 6.0 210 / 4980.8 2.1 0.8 0.7
2018-Apr-21 14:00S 63°54' W 062°42'6 6.0 090 / 14980.5 0.5-0.0 0.8
2018-Apr-21 13:00S 63°48' W 062°42'6 6.0 090 / 13980.4 0.3-0.2 0.8
2018-Apr-21 12:00S 63°42' W 062°42'7 6.6 090 / 13980.0 0.5-0.1 0.8
2018-Apr-21 11:00S 63°36' W 062°36'6 6.0 080 / 14979.7 0.4-0.2 0.9
2018-Apr-21 10:00S 63°30' W 062°36'6 6.0 070 / 13979.5 0.6-0.3 0.9
2018-Apr-21 09:00S 63°24' W 062°36'0 0.0 080 / 15978.8 1.6 0.4 0.9
2018-Apr-21 08:00S 63°24' W 062°36'3 2.7 080 / 21978.6 1.2 0.2 0.9
2018-Apr-21 07:00S 63°24' W 062°42'3 2.7 070 / 26978.5 0.2-0.8 0.9
2018-Apr-21 06:00S 63°24' W 062°36'3 2.7 080 / 30978.0 0.8-0.4 0.9
2018-Apr-21 05:00S 63°24' W 062°42'3 2.7 080 / 30978.5 0.5-0.6 0.9
2018-Apr-21 04:00S 63°24' W 062°36'3 2.7 090 / 32978.6 0.8-0.3 0.9
2018-Apr-21 03:00S 63°24' W 062°42'3 2.7 080 / 32979.5 1.0-0.4 0.9
2018-Apr-21 02:00S 63°24' W 062°36'3 2.7 080 / 27980.1 2.3 0.4 0.9
2018-Apr-21 01:00S 63°24' W 062°42'3 2.7 070 / 24980.8 1.1 0.1 0.9
2018-Apr-21 00:00S 63°24' W 062°36'3 2.7 060 / 21981.4 1.5 0.7 0.9
2018-Apr-20 23:00S 63°24' W 062°42'0 0.0 050 / 21982.0 1.5 0.8 0.9
2018-Apr-20 22:00S 63°24' W 062°42'1212.3 060 / 19981.9 0.3-0.2 0.9
2018-Apr-20 21:00S 63°36' W 062°36'1212.0 070 / 12982.7 0.2-0.4 0.9
2018-Apr-20 20:00S 63°48' W 062°36'6 6.0 080 / 17982.7 0.2-0.5 0.8
2018-Apr-20 19:00S 63°54' W 062°36'6 6.0 070 / 19982.1 0.4-0.8 0.5
2018-Apr-20 18:00S 64°00' W 062°36'7 6.5 240 / 3982.7 0.9-0.1 0.3
2018-Apr-20 17:00S 64°06' W 062°42'0 0.0 170 / 2982.9 0.6-0.2 0.3
2018-Apr-20 16:00S 64°06' W 062°42'0 0.0 060 / 5982.7 0.4-0.4 0.3
2018-Apr-20 15:00S 64°06' W 062°42'0 0.0 030 / 16982.2 -0.0-0.9 0.3
2018-Apr-20 14:00S 64°06' W 062°42'3 2.6 040 / 6982.2 0.8-0.7 0.3
2018-Apr-20 13:00S 64°06' W 062°36'0 0.0 290 / 2982.2 1.2-0.2 0.3
2018-Apr-20 12:00S 64°06' W 062°36'0 0.0 180 / 5982.1 0.7-0.6 0.3
2018-Apr-20 11:00S 64°06' W 062°36'3 2.6 010 / 4982.3 0.8-0.7 0.3
2018-Apr-20 10:00S 64°06' W 062°42'3 2.6 050 / 10982.2 0.6-0.7 0.4
2018-Apr-20 09:00S 64°06' W 062°48'0 0.0 040 / 10982.1 1.3-0.3 0.5
2018-Apr-20 08:00S 64°06' W 062°48'6 6.0 320 / 4982.0 1.3-0.3 0.4
2018-Apr-20 07:00S 64°12' W 062°48'7 6.5 270 / 7981.8 0.9-0.5 0.1
2018-Apr-20 06:00S 64°18' W 062°42'0 0.0 190 / 12981.8 0.6-0.6 0.1
2018-Apr-20 05:00S 64°18' W 062°42'7 6.5 170 / 8982.4 0.8-0.5 0.1
2018-Apr-20 04:00S 64°24' W 062°48'7 6.5 260 / 4982.7 1.6 0.1 0.1
2018-Apr-20 03:00S 64°30' W 062°42'3 2.6 090 / 6982.7 0.9-0.1 0.1
2018-Apr-20 02:00S 64°30' W 062°36'8 7.9 090 / 17981.9 1.2-0.3 0.1
2018-Apr-20 01:00S 64°36' W 062°48'5 5.1 060 / 18981.3 2.0-0.0 0.3
2018-Apr-20 00:00S 64°36' W 063°00'8 7.9 040 / 11981.3 1.5-1.0 0.3
2018-Apr-19 23:00S 64°42' W 063°12'3 2.6 220 / 3980.9 1.1-0.3 0.2
2018-Apr-19 22:00S 64°42' W 063°18'8 7.9 030 / 3980.3 1.0-0.7 0.3
2018-Apr-19 21:00S 64°48' W 063°30'8 7.7 080 / 6979.7 2.0-0.5 0.5
2018-Apr-19 20:00S 64°48' W 063°48'8 7.9 010 / 16979.1 2.0-0.6 0.6
2018-Apr-19 19:00S 64°42' W 064°00'0 0.0 010 / 19978.4 1.7-0.2
2018-Apr-19 18:00S 64°42' W 064°00'0 0.0 350 / 17977.8 1.7-0.0
2018-Apr-19 17:00S 64°42' W 064°00'0 0.0 360 / 18977.3 1.8-0.1
2018-Apr-19 16:00S 64°42' W 064°00'0 0.0 010 / 15977.1 1.9-0.2
2018-Apr-19 15:00S 64°42' W 064°00'0 0.0 010 / 13976.7 2.1-0.5
2018-Apr-19 14:00S 64°42' W 064°00'0 0.0 360 / 15975.8 1.9-0.7
2018-Apr-19 13:00S 64°42' W 064°00'0 0.0 350 / 17974.8 1.8-1.0 0.3
2018-Apr-19 12:00S 64°42' W 064°00'7 6.5 350 / 19973.3 2.3-0.6 0.4
2018-Apr-19 11:00S 64°48' W 063°54'3 2.6 350 / 22972.1 2.0-0.9 0.5
2018-Apr-19 10:00S 64°48' W 063°48'0 0.0 340 / 21971.1 2.1-0.3 0.5
2018-Apr-19 09:00S 64°48' W 063°48'0 0.0 010 / 14970.5 2.4-0.2 0.5
2018-Apr-19 08:00S 64°48' W 063°48'5 5.1 020 / 17969.4 2.5-0.0 0.4
2018-Apr-19 07:00S 64°48' W 064°00'3 2.6 070 / 20968.9 1.6-0.4 0.4
2018-Apr-19 06:00S 64°48' W 063°54'3 2.6 090 / 28968.6 1.1-0.9 0.5
2018-Apr-19 05:00S 64°48' W 063°48'0 0.0 070 / 35967.8 1.2-0.5 0.5
2018-Apr-19 04:00S 64°48' W 063°48'3 2.6 080 / 28968.6 1.2-0.9 0.5
2018-Apr-19 03:00S 64°48' W 063°54'3 2.6 080 / 24969.5 0.9-0.6 0.5
2018-Apr-19 02:00S 64°48' W 064°00'5 5.1 090 / 38969.3 -0.0-1.2 0.5
2018-Apr-19 01:00S 64°48' W 063°48'3 2.6 080 / 41970.4 0.4-2.2 0.5
2018-Apr-19 00:00S 64°48' W 063°42'5 5.1 090 / 42970.1 1.0-2.9 0.5
2018-Apr-18 23:00S 64°48' W 063°54'3 2.6 090 / 44971.1 0.9-2.6 0.5
2018-Apr-18 22:00S 64°48' W 064°00'5 5.1 080 / 41974.6 0.7-3.2 0.5
2018-Apr-18 21:00S 64°48' W 063°48'3 2.6 070 / 30978.2 1.1-4.1 0.5
2018-Apr-18 20:00S 64°48' W 063°42'7 6.5 080 / 23980.5 1.8-5.6 0.5
2018-Apr-18 19:00S 64°54' W 063°36'7 6.5 070 / 26981.0 1.8-5.6 0.5
2018-Apr-18 18:00S 64°48' W 063°42'3 2.6 070 / 31981.1 1.2-3.1 0.5
2018-Apr-18 17:00S 64°48' W 063°48'3 2.6 080 / 33982.0 1.4-2.7 0.6
2018-Apr-18 16:00S 64°48' W 063°54'3 2.6 090 / 24983.3 1.5-3.2 0.5
2018-Apr-18 15:00S 64°48' W 064°00'6 6.0 050 / 23984.4 1.3-5.6 0.4
2018-Apr-18 14:00S 64°42' W 064°00'0 0.0 050 / 16985.4 1.1-5.6
2018-Apr-18 13:00S 64°42' W 064°00'0 0.0 010 / 21985.4 1.1-4.2
2018-Apr-18 12:00S 64°42' W 064°00'0 0.0 010 / 22985.6 1.2-3.7
2018-Apr-18 11:00S 64°42' W 064°00'0 0.0 010 / 16986.0 1.1-2.8
2018-Apr-18 10:00S 64°42' W 064°00'0 0.0 340 / 7986.4 1.1-1.3
2018-Apr-18 09:00S 64°42' W 064°00'0 0.0 350 / 8986.0 1.2-1.4
2018-Apr-18 08:00S 64°42' W 064°00'0 0.0 350 / 12984.8 1.2-2.2
2018-Apr-18 07:00S 64°42' W 064°00'0 0.0 340 / 15983.6 1.2-2.1
2018-Apr-18 06:00S 64°42' W 064°00'0 0.0 330 / 21982.0 1.0-2.5
2018-Apr-18 05:00S 64°42' W 064°00'0 0.0 320 / 24980.2 0.9-1.9
2018-Apr-18 04:00S 64°42' W 064°00'0 0.0 310 / 26977.9 0.7-0.6
2018-Apr-18 03:00S 64°42' W 064°00'0 0.0 330 / 28975.2 1.4-0.0
2018-Apr-18 02:00S 64°42' W 064°00'0 0.0 010 / 28973.5 2.3 0.3
2018-Apr-18 01:00S 64°42' W 064°00'0 0.0 020 / 37972.3 2.8-0.0
2018-Apr-18 00:00S 64°42' W 064°00'0 0.0 030 / 41971.8 2.5-0.0
2018-Apr-17 23:00S 64°42' W 064°00'0 0.0 070 / 29972.5 1.7-0.8
2018-Apr-17 22:00S 64°42' W 064°00'0 0.0 090 / 23973.5 1.7-2.2
2018-Apr-17 21:00S 64°42' W 064°00'0 0.0 070 / 26974.8 3.3-2.8
2018-Apr-17 20:00S 64°42' W 064°00'0 0.0 050 / 29975.6 3.9-3.4
2018-Apr-17 19:00S 64°42' W 064°00'0 0.0 050 / 28976.5 3.7-3.5
2018-Apr-17 18:00S 64°42' W 064°00'0 0.0 050 / 22978.0 3.0-3.4 0.1
2018-Apr-17 17:00S 64°42' W 064°00'0 0.0 050 / 20979.1 3.2-3.7 0.1
2018-Apr-17 16:00S 64°42' W 064°00'7 6.5 070 / 15980.2 2.7-3.2 0.4
2018-Apr-17 15:00S 64°48' W 063°54'3 2.6 070 / 13981.7 2.3-1.9 0.4
2018-Apr-17 14:00S 64°48' W 063°48'1211.9 060 / 21982.8 1.3-1.4 0.4
2018-Apr-17 13:00S 64°42' W 063°24'1010.3 060 / 22983.7 1.3-1.6 0.3
2018-Apr-17 12:00S 64°42' W 063°00'1414.3 050 / 22985.5 1.0-1.1 0.3
2018-Apr-17 11:00S 64°30' W 062°42'1010.3 060 / 12987.0 0.6-0.3 0.1
2018-Apr-17 10:00S 64°30' W 062°18'1414.3 040 / 14987.6 0.5-0.2-0.0
2018-Apr-17 09:00S 64°18' W 062°00'8 7.9 030 / 23987.9 -0.0-0.5-0.2
2018-Apr-17 08:00S 64°12' W 061°48'1212.3 040 / 18988.9 -0.0-0.5-0.3
2018-Apr-17 07:00S 64°00' W 061°42'1313.1 040 / 15990.0 -0.1-0.6-0.2
2018-Apr-17 06:00S 63°48' W 061°30'7 6.6 030 / 13990.7 0.2-0.3-0.2
2018-Apr-17 05:00S 63°42' W 061°24'1212.0 040 / 10991.4 0.2-0.4-0.2
2018-Apr-17 04:00S 63°30' W 061°24'1212.3 020 / 8991.8 0.7-0.0 0.3
2018-Apr-17 03:00S 63°18' W 061°30'7 6.6 340 / 11992.4 1.1 0.4 0.8
2018-Apr-17 02:00S 63°12' W 061°36'   330 / 17992.4 1.1 0.4 0.9
Track history (hours):
 
Tides and Currents Weather Stations Pressure Air Temp Water Temp Dewpoint Dewpoint Depression Visibility Wind Speed Wind Dir Waves Ship Positions

Oceanographic research ship Laurence M. Gould (USA)

Detailed information on ship capabilities available from University of Delaware's Ocean Information Center.

Owner: Offshore Service Vessels LLC, Cut Off, LA. More information available from US FCC via Universal Licensing System and Coast Guard Vessel Documentation Center.

Last reported at 2018-Apr-27 02:00 UTC. Time now 2018-Apr-27 02:47 UTC.
Position S 64°42' W 064°00'.

Type: Ship. MMSI: 368138000.

Wind from 250 at 13 knots

Barometer 996.9 mb
Air temperature -1.0 ° C
Dewpoint -2.5 ° C

Date/timePositionNaut miles runAvg speedWind from/ knotsBaromVisibWave heightAir tempDewpointWater temp
2018-Apr-27 02:00S 64°42' W 064°00'0 0.0 250 / 13996.9 -1.0-2.5
2018-Apr-27 01:00S 64°42' W 064°00'0 0.0 240 / 17996.8 -0.9-1.7
2018-Apr-27 00:00S 64°42' W 064°00'0 0.0 290 / 10996.8 0.3-0.4
2018-Apr-26 23:00S 64°42' W 064°00'0 0.0 300 / 9996.6 0.2-0.5
2018-Apr-26 22:00S 64°42' W 064°00'0 0.0 300 / 11996.6 0.2-0.6
2018-Apr-26 21:00S 64°42' W 064°00'0 0.0 330 / 14996.6 -0.3-1.6
2018-Apr-26 20:00S 64°42' W 064°00'0 0.0 340 / 11997.1 -0.2-2.3
2018-Apr-26 19:00S 64°42' W 064°00'0 0.0 340 / 8997.7 -0.3-3.0
2018-Apr-26 18:00S 64°42' W 064°00'0 0.0 350 / 9998.3 -0.7-4.0
2018-Apr-26 17:00S 64°42' W 064°00'0 0.0 350 / 7999.1 -1.3-4.8
2018-Apr-26 16:00S 64°42' W 064°00'0 0.0 340 / 51000.0 -1.8-5.5
2018-Apr-26 15:00S 64°42' W 064°00'0 0.0 010 / 31000.4 -2.4-6.2
2018-Apr-26 14:00S 64°42' W 064°00'0 0.0 200 / 11000.7 -1.8-6.4
2018-Apr-26 13:00S 64°42' W 064°00'0 0.0 230 / 51001.5 -2.2-6.9
2018-Apr-26 12:00S 64°42' W 064°00'0 0.0 240 / 101001.8 -2.6-6.6
2018-Apr-26 11:00S 64°42' W 064°00'0 0.0 240 / 111001.8 -2.8-7.2
2018-Apr-26 10:00S 64°42' W 064°00'0 0.0 230 / 111002.1 -3.0-7.3
2018-Apr-26 09:00S 64°42' W 064°00'0 0.0 230 / 111002.1 -3.0-7.2
2018-Apr-26 08:00S 64°42' W 064°00'0 0.0 240 / 111002.4 -2.9-7.8
2018-Apr-26 07:00S 64°42' W 064°00'0 0.0 230 / 91002.4 -2.6-7.8
2018-Apr-26 06:00S 64°42' W 064°00'0 0.0 240 / 111002.2 -2.6-7.6
2018-Apr-26 05:00S 64°42' W 064°00'0 0.0 240 / 101002.2 -2.3-7.0
2018-Apr-26 04:00S 64°42' W 064°00'0 0.0 240 / 111002.6 -2.2-6.8
2018-Apr-26 03:00S 64°42' W 064°00'0 0.0 230 / 121002.6 -2.1-6.2
2018-Apr-26 02:00S 64°42' W 064°00'0 0.0 240 / 111002.5 -2.0-5.5
2018-Apr-26 01:00S 64°42' W 064°00'0 0.0 240 / 111002.3 -1.9-5.3
2018-Apr-26 00:00S 64°42' W 064°00'0 0.0 230 / 111002.5 -1.8-5.2
2018-Apr-25 23:00S 64°42' W 064°00'0 0.0 230 / 121002.2 -1.7-4.8
2018-Apr-25 22:00S 64°42' W 064°00'0 0.0 220 / 91002.2 -1.4-4.7
2018-Apr-25 21:00S 64°42' W 064°00'0 0.0 220 / 101002.1 -1.2-5.0
2018-Apr-25 20:00S 64°42' W 064°00'0 0.0 220 / 101002.0 -1.0-5.3
2018-Apr-25 19:00S 64°42' W 064°00'0 0.0 340 / 21001.7 -1.2-5.0
2018-Apr-25 18:00S 64°42' W 064°00'0 0.0 030 / 31001.3 -2.2-6.0
2018-Apr-25 17:00S 64°42' W 064°00'0 0.0 040 / 31000.9 -1.7-6.0
2018-Apr-25 16:00S 64°42' W 064°00'0 0.0 030 / 21000.6 -0.4-5.6
2018-Apr-25 15:00S 64°42' W 064°00'0 0.0 010 / 3999.9 -1.0-5.3
2018-Apr-25 14:00S 64°42' W 064°00'0 0.0 340 / 5999.1 -1.4-5.8
2018-Apr-25 13:00S 64°42' W 064°00'0 0.0 350 / 2998.5 -1.3-6.0
2018-Apr-25 12:00S 64°42' W 064°00'0 0.0 100 / 2997.9 -1.3-6.4
2018-Apr-25 11:00S 64°42' W 064°00'0 0.0 110 / 3997.4 -1.8-7.2
2018-Apr-25 10:00S 64°42' W 064°00'0 0.0 100 / 5997.1 -2.0-7.6
2018-Apr-25 09:00S 64°42' W 064°00'0 0.0 100 / 4996.8 -1.9-6.9
2018-Apr-25 08:00S 64°42' W 064°00'0 0.0 130 / 2996.7 -1.6-6.6
2018-Apr-25 07:00S 64°42' W 064°00'0 0.0 120 / 3996.6 -2.0-6.6
2018-Apr-25 06:00S 64°42' W 064°00'0 0.0 080 / 3996.7 -2.0-6.8
2018-Apr-25 05:00S 64°42' W 064°00'0 0.0 120 / 2996.9 -1.8-6.3
2018-Apr-25 04:00S 64°42' W 064°00'0 0.0 080 / 2996.9 -1.8-6.3
2018-Apr-25 03:00S 64°42' W 064°00'0 0.0 010 / 1997.1 -1.4-5.3
2018-Apr-25 02:00S 64°42' W 064°00'0 0.0 100 / 5997.0 -2.2-5.1
2018-Apr-25 01:00S 64°42' W 064°00'0 0.0 100 / 3997.1 -2.3-4.3
2018-Apr-25 00:00S 64°42' W 064°00'0 0.0 070 / 3997.3 -1.9-5.3
2018-Apr-24 23:00S 64°42' W 064°00'0 0.0 120 / 3997.0 -2.0-4.5
2018-Apr-24 22:00S 64°42' W 064°00'0 0.0 090 / 7996.8 -2.5-4.2
2018-Apr-24 21:00S 64°42' W 064°00'0 0.0 120 / 6996.7 -2.1-4.8
2018-Apr-24 20:00S 64°42' W 064°00'0 0.0 110 / 7996.3 -1.2-6.6
2018-Apr-24 19:00S 64°42' W 064°00'0 0.0 090 / 4996.1 -1.0-6.7
2018-Apr-24 18:00S 64°42' W 064°00'0 0.0 080 / 1996.0 -0.2-5.9
2018-Apr-24 17:00S 64°42' W 064°00'0 0.0 110 / 5995.8 -1.0-6.8
2018-Apr-24 16:00S 64°42' W 064°00'0 0.0 100 / 6995.5 -1.1-7.0
2018-Apr-24 15:00S 64°42' W 064°00'0 0.0 110 / 4995.3 -1.1-7.4
2018-Apr-24 14:00S 64°42' W 064°00'0 0.0 140 / 2995.1 -1.0-6.5
2018-Apr-24 13:00S 64°42' W 064°00'0 0.0 140 / 2994.9 -0.9-6.1
2018-Apr-24 12:00S 64°42' W 064°00'0 0.0 290 / 2994.5 -0.3-6.4
2018-Apr-24 11:00S 64°42' W 064°00'0 0.0 010 / 2994.1 -0.8-7.6
2018-Apr-24 10:00S 64°42' W 064°00'0 0.0 320 / 2993.8 -0.7-6.6
2018-Apr-24 09:00S 64°42' W 064°00'0 0.0 270 / 2993.5 -0.7-7.9
2018-Apr-24 08:00S 64°42' W 064°00'0 0.0 140 / 3993.2 -1.1-9.2
2018-Apr-24 07:00S 64°42' W 064°00'0 0.0 090 / 8992.9 -1.3-11.2
2018-Apr-24 06:00S 64°42' W 064°00'0 0.0 070 / 4992.6 -2.1-9.9
2018-Apr-24 05:00S 64°42' W 064°00'0 0.0 040 / 3992.3 -2.5-10.7
2018-Apr-24 04:00S 64°42' W 064°00'0 0.0 020 / 3991.8 -1.6-10.1
2018-Apr-24 03:00S 64°42' W 064°00'0 0.0 090 / 5991.2 -1.9-10.6
2018-Apr-24 02:00S 64°42' W 064°00'0 0.0 130 / 1990.7 -1.5-9.5
2018-Apr-24 01:00S 64°42' W 064°00'0 0.0 040 / 7990.2 -2.0-8.2
2018-Apr-24 00:00S 64°42' W 064°00'0 0.0 030 / 7989.5 -1.8-8.1
2018-Apr-23 23:00S 64°42' W 064°00'0 0.0 040 / 3988.8 -2.4-9.7
2018-Apr-23 22:00S 64°42' W 064°00'0 0.0 020 / 4988.0 -2.4-7.5
2018-Apr-23 21:00S 64°42' W 064°00'0 0.0 010 / 6987.1 -2.1-5.8
2018-Apr-23 20:00S 64°42' W 064°00'0 0.0 030 / 5986.4 -1.8-5.4
2018-Apr-23 19:00S 64°42' W 064°00'0 0.0 040 / 3985.7 -1.7-4.7
2018-Apr-23 18:00S 64°42' W 064°00'0 0.0 040 / 4985.0 -2.0-4.7
2018-Apr-23 17:00S 64°42' W 064°00'0 0.0 030 / 3984.2 -1.8-4.6
2018-Apr-23 16:00S 64°42' W 064°00'0 0.0 040 / 4983.6 -1.6-4.6
2018-Apr-23 15:00S 64°42' W 064°00'0 0.0 040 / 5983.0 -1.5-4.6
2018-Apr-23 14:00S 64°42' W 064°00'0 0.0 020 / 2982.5 -0.8-3.9
2018-Apr-23 13:00S 64°42' W 064°00'0 0.0 330 / 4981.8 -0.7-3.8
2018-Apr-23 12:00S 64°42' W 064°00'0 0.0 330 / 4981.1 -0.8-3.4
2018-Apr-23 11:00S 64°42' W 064°00'0 0.0 350 / 5980.6 -1.1-3.1
2018-Apr-23 10:00S 64°42' W 064°00'0 0.0 350 / 5979.9 -1.2-3.3
2018-Apr-23 09:00S 64°42' W 064°00'0 0.0 360 / 5979.2 -1.5-4.4
2018-Apr-23 08:00S 64°42' W 064°00'0 0.0 010 / 3978.7 -2.2-5.3
2018-Apr-23 07:00S 64°42' W 064°00'0 0.0 030 / 1978.2 -1.8-5.7
2018-Apr-23 06:00S 64°42' W 064°00'0 0.0 050 / 3977.6 -1.9-5.3
2018-Apr-23 05:00S 64°42' W 064°00'0 0.0 030 / 5977.1 -1.9-4.9
2018-Apr-23 04:00S 64°42' W 064°00'0 0.0 020 / 7976.6 -1.8-4.2
2018-Apr-23 03:00S 64°42' W 064°00'0 0.0 010 / 6976.3 -1.5-5.1
2018-Apr-23 02:00S 64°42' W 064°00'0 0.0 010 / 4976.0 -1.6-6.2
2018-Apr-23 01:00S 64°42' W 064°00'0 0.0 350 / 3975.7 -1.3-5.0
2018-Apr-23 00:00S 64°42' W 064°00'0 0.0 020 / 3975.4 -1.3-4.6
2018-Apr-22 23:00S 64°42' W 064°00'0 0.0 010 / 4975.1 -1.2-4.2
2018-Apr-22 22:00S 64°42' W 064°00'0 0.0 360 / 3975.2 -1.2-3.8
2018-Apr-22 21:00S 64°42' W 064°00'0 0.0 300 / 4974.9 -0.4-2.8
2018-Apr-22 20:00S 64°42' W 064°00'0 0.0 330 / 2974.5 0.3-2.4
2018-Apr-22 19:00S 64°42' W 064°00'0 0.0 190 / 8974.3 0.3-2.9
2018-Apr-22 18:00S 64°42' W 064°00'0 0.0 160 / 9974.5 0.4-3.3
2018-Apr-22 17:00S 64°42' W 064°00'0 0.0 140 / 6975.1 0.2-3.0
2018-Apr-22 16:00S 64°42' W 064°00'0 0.0 170 / 9975.5 -0.0-2.8
2018-Apr-22 15:00S 64°42' W 064°00'0 0.0 130 / 5976.2 -0.4-2.3
2018-Apr-22 14:00S 64°42' W 064°00'0 0.0 140 / 5976.7 -1.1-2.8
2018-Apr-22 13:00S 64°42' W 064°00'0 0.0 030 / 5977.3 -1.4-3.6-0.0
2018-Apr-22 12:00S 64°42' W 064°00'6 6.0 340 / 7977.8 0.6-2.1 0.1
2018-Apr-22 11:00S 64°48' W 064°00'3 2.6 240 / 5978.7 0.2-2.0 0.3
2018-Apr-22 10:00S 64°48' W 063°54'5 5.1 010 / 7979.7 -0.3-2.7 0.3
2018-Apr-22 09:00S 64°48' W 063°42'3 2.6 050 / 22980.0 -0.0-2.0 0.3
2018-Apr-22 08:00S 64°48' W 063°36'3 2.6 050 / 22981.0 0.1-2.0 0.2
2018-Apr-22 07:00S 64°48' W 063°30'7 6.5 050 / 5981.6 -0.0-2.7 0.2
2018-Apr-22 06:00S 64°42' W 063°24'3 2.6 010 / 6981.6 -0.3-3.0 0.2
2018-Apr-22 05:00S 64°42' W 063°18'3 2.6 050 / 16981.8 0.3-1.5 0.3
2018-Apr-22 04:00S 64°42' W 063°12'5 5.1 030 / 15982.3 -0.0-1.2 0.2
2018-Apr-22 03:00S 64°42' W 063°00'0 0.0 040 / 15982.9 1.1-0.5 0.2
2018-Apr-22 02:00S 64°42' W 063°00'0 0.0 060 / 14983.3 0.8-0.4 0.2
2018-Apr-22 01:00S 64°42' W 063°00'3 2.6 070 / 18983.2 0.6-0.4 0.2
2018-Apr-22 00:00S 64°42' W 063°06'8 7.9 050 / 13983.1 0.5-0.7 0.1
2018-Apr-21 23:00S 64°36' W 062°54'10 9.8 020 / 11983.2 -0.0-1.1 0.1
2018-Apr-21 22:00S 64°30' W 062°36'7 6.5 030 / 3982.9 1.2-0.8-0.0
2018-Apr-21 21:00S 64°24' W 062°42'1212.0 260 / 2982.4 1.6 0.1 0.1
2018-Apr-21 20:00S 64°12' W 062°42'6 6.0 120 / 5982.1 0.6-0.5 0.4
2018-Apr-21 19:00S 64°06' W 062°42'0 0.0 340 / 3982.4 0.9-0.6 0.4
2018-Apr-21 18:00S 64°06' W 062°42'0 0.0 060 / 5982.1 1.9-0.5 0.5
2018-Apr-21 17:00S 64°06' W 062°42'0 0.0 020 / 5981.6 1.6-0.3 0.7
2018-Apr-21 16:00S 64°06' W 062°42'6 6.0 320 / 4980.9 1.2-0.6 0.8
2018-Apr-21 15:00S 64°00' W 062°42'6 6.0 210 / 4980.8 2.1 0.8 0.7
2018-Apr-21 14:00S 63°54' W 062°42'6 6.0 090 / 14980.5 0.5-0.0 0.8
2018-Apr-21 13:00S 63°48' W 062°42'6 6.0 090 / 13980.4 0.3-0.2 0.8
2018-Apr-21 12:00S 63°42' W 062°42'7 6.6 090 / 13980.0 0.5-0.1 0.8
2018-Apr-21 11:00S 63°36' W 062°36'6 6.0 080 / 14979.7 0.4-0.2 0.9
2018-Apr-21 10:00S 63°30' W 062°36'6 6.0 070 / 13979.5 0.6-0.3 0.9
2018-Apr-21 09:00S 63°24' W 062°36'0 0.0 080 / 15978.8 1.6 0.4 0.9
2018-Apr-21 08:00S 63°24' W 062°36'3 2.7 080 / 21978.6 1.2 0.2 0.9
2018-Apr-21 07:00S 63°24' W 062°42'3 2.7 070 / 26978.5 0.2-0.8 0.9
2018-Apr-21 06:00S 63°24' W 062°36'3 2.7 080 / 30978.0 0.8-0.4 0.9
2018-Apr-21 05:00S 63°24' W 062°42'3 2.7 080 / 30978.5 0.5-0.6 0.9
2018-Apr-21 04:00S 63°24' W 062°36'3 2.7 090 / 32978.6 0.8-0.3 0.9
2018-Apr-21 03:00S 63°24' W 062°42'3 2.7 080 / 32979.5 1.0-0.4 0.9
2018-Apr-21 02:00S 63°24' W 062°36'3 2.7 080 / 27980.1 2.3 0.4 0.9
2018-Apr-21 01:00S 63°24' W 062°42'3 2.7 070 / 24980.8 1.1 0.1 0.9
2018-Apr-21 00:00S 63°24' W 062°36'3 2.7 060 / 21981.4 1.5 0.7 0.9
2018-Apr-20 23:00S 63°24' W 062°42'0 0.0 050 / 21982.0 1.5 0.8 0.9
2018-Apr-20 22:00S 63°24' W 062°42'1212.3 060 / 19981.9 0.3-0.2 0.9
2018-Apr-20 21:00S 63°36' W 062°36'1212.0 070 / 12982.7 0.2-0.4 0.9
2018-Apr-20 20:00S 63°48' W 062°36'6 6.0 080 / 17982.7 0.2-0.5 0.8
2018-Apr-20 19:00S 63°54' W 062°36'6 6.0 070 / 19982.1 0.4-0.8 0.5
2018-Apr-20 18:00S 64°00' W 062°36'7 6.5 240 / 3982.7 0.9-0.1 0.3
2018-Apr-20 17:00S 64°06' W 062°42'0 0.0 170 / 2982.9 0.6-0.2 0.3
2018-Apr-20 16:00S 64°06' W 062°42'0 0.0 060 / 5982.7 0.4-0.4 0.3
2018-Apr-20 15:00S 64°06' W 062°42'0 0.0 030 / 16982.2 -0.0-0.9 0.3
2018-Apr-20 14:00S 64°06' W 062°42'3 2.6 040 / 6982.2 0.8-0.7 0.3
2018-Apr-20 13:00S 64°06' W 062°36'0 0.0 290 / 2982.2 1.2-0.2 0.3
2018-Apr-20 12:00S 64°06' W 062°36'0 0.0 180 / 5982.1 0.7-0.6 0.3
2018-Apr-20 11:00S 64°06' W 062°36'3 2.6 010 / 4982.3 0.8-0.7 0.3
2018-Apr-20 10:00S 64°06' W 062°42'3 2.6 050 / 10982.2 0.6-0.7 0.4
2018-Apr-20 09:00S 64°06' W 062°48'0 0.0 040 / 10982.1 1.3-0.3 0.5
2018-Apr-20 08:00S 64°06' W 062°48'6 6.0 320 / 4982.0 1.3-0.3 0.4
2018-Apr-20 07:00S 64°12' W 062°48'7 6.5 270 / 7981.8 0.9-0.5 0.1
2018-Apr-20 06:00S 64°18' W 062°42'0 0.0 190 / 12981.8 0.6-0.6 0.1
2018-Apr-20 05:00S 64°18' W 062°42'7 6.5 170 / 8982.4 0.8-0.5 0.1
2018-Apr-20 04:00S 64°24' W 062°48'7 6.5 260 / 4982.7 1.6 0.1 0.1
2018-Apr-20 03:00S 64°30' W 062°42'3 2.6 090 / 6982.7 0.9-0.1 0.1
2018-Apr-20 02:00S 64°30' W 062°36'8 7.9 090 / 17981.9 1.2-0.3 0.1
2018-Apr-20 01:00S 64°36' W 062°48'5 5.1 060 / 18981.3 2.0-0.0 0.3
2018-Apr-20 00:00S 64°36' W 063°00'8 7.9 040 / 11981.3 1.5-1.0 0.3
2018-Apr-19 23:00S 64°42' W 063°12'3 2.6 220 / 3980.9 1.1-0.3 0.2
2018-Apr-19 22:00S 64°42' W 063°18'8 7.9 030 / 3980.3 1.0-0.7 0.3
2018-Apr-19 21:00S 64°48' W 063°30'8 7.7 080 / 6979.7 2.0-0.5 0.5
2018-Apr-19 20:00S 64°48' W 063°48'8 7.9 010 / 16979.1 2.0-0.6 0.6
2018-Apr-19 19:00S 64°42' W 064°00'0 0.0 010 / 19978.4 1.7-0.2
2018-Apr-19 18:00S 64°42' W 064°00'0 0.0 350 / 17977.8 1.7-0.0
2018-Apr-19 17:00S 64°42' W 064°00'0 0.0 360 / 18977.3 1.8-0.1
2018-Apr-19 16:00S 64°42' W 064°00'0 0.0 010 / 15977.1 1.9-0.2
2018-Apr-19 15:00S 64°42' W 064°00'0 0.0 010 / 13976.7 2.1-0.5
2018-Apr-19 14:00S 64°42' W 064°00'0 0.0 360 / 15975.8 1.9-0.7
2018-Apr-19 13:00S 64°42' W 064°00'0 0.0 350 / 17974.8 1.8-1.0 0.3
2018-Apr-19 12:00S 64°42' W 064°00'7 6.5 350 / 19973.3 2.3-0.6 0.4
2018-Apr-19 11:00S 64°48' W 063°54'3 2.6 350 / 22972.1 2.0-0.9 0.5
2018-Apr-19 10:00S 64°48' W 063°48'0 0.0 340 / 21971.1 2.1-0.3 0.5
2018-Apr-19 09:00S 64°48' W 063°48'0 0.0 010 / 14970.5 2.4-0.2 0.5
2018-Apr-19 08:00S 64°48' W 063°48'5 5.1 020 / 17969.4 2.5-0.0 0.4
2018-Apr-19 07:00S 64°48' W 064°00'3 2.6 070 / 20968.9 1.6-0.4 0.4
2018-Apr-19 06:00S 64°48' W 063°54'3 2.6 090 / 28968.6 1.1-0.9 0.5
2018-Apr-19 05:00S 64°48' W 063°48'0 0.0 070 / 35967.8 1.2-0.5 0.5
2018-Apr-19 04:00S 64°48' W 063°48'3 2.6 080 / 28968.6 1.2-0.9 0.5
2018-Apr-19 03:00S 64°48' W 063°54'3 2.6 080 / 24969.5 0.9-0.6 0.5
2018-Apr-19 02:00S 64°48' W 064°00'5 5.1 090 / 38969.3 -0.0-1.2 0.5
2018-Apr-19 01:00S 64°48' W 063°48'3 2.6 080 / 41970.4 0.4-2.2 0.5
2018-Apr-19 00:00S 64°48' W 063°42'5 5.1 090 / 42970.1 1.0-2.9 0.5
2018-Apr-18 23:00S 64°48' W 063°54'3 2.6 090 / 44971.1 0.9-2.6 0.5
2018-Apr-18 22:00S 64°48' W 064°00'5 5.1 080 / 41974.6 0.7-3.2 0.5
2018-Apr-18 21:00S 64°48' W 063°48'3 2.6 070 / 30978.2 1.1-4.1 0.5
2018-Apr-18 20:00S 64°48' W 063°42'7 6.5 080 / 23980.5 1.8-5.6 0.5
2018-Apr-18 19:00S 64°54' W 063°36'7 6.5 070 / 26981.0 1.8-5.6 0.5
2018-Apr-18 18:00S 64°48' W 063°42'3 2.6 070 / 31981.1 1.2-3.1 0.5
2018-Apr-18 17:00S 64°48' W 063°48'3 2.6 080 / 33982.0 1.4-2.7 0.6
2018-Apr-18 16:00S 64°48' W 063°54'3 2.6 090 / 24983.3 1.5-3.2 0.5
2018-Apr-18 15:00S 64°48' W 064°00'6 6.0 050 / 23984.4 1.3-5.6 0.4
2018-Apr-18 14:00S 64°42' W 064°00'0 0.0 050 / 16985.4 1.1-5.6
2018-Apr-18 13:00S 64°42' W 064°00'0 0.0 010 / 21985.4 1.1-4.2
2018-Apr-18 12:00S 64°42' W 064°00'0 0.0 010 / 22985.6 1.2-3.7
2018-Apr-18 11:00S 64°42' W 064°00'0 0.0 010 / 16986.0 1.1-2.8
2018-Apr-18 10:00S 64°42' W 064°00'0 0.0 340 / 7986.4 1.1-1.3
2018-Apr-18 09:00S 64°42' W 064°00'0 0.0 350 / 8986.0 1.2-1.4
2018-Apr-18 08:00S 64°42' W 064°00'0 0.0 350 / 12984.8 1.2-2.2
2018-Apr-18 07:00S 64°42' W 064°00'0 0.0 340 / 15983.6 1.2-2.1
2018-Apr-18 06:00S 64°42' W 064°00'0 0.0 330 / 21982.0 1.0-2.5
2018-Apr-18 05:00S 64°42' W 064°00'0 0.0 320 / 24980.2 0.9-1.9
2018-Apr-18 04:00S 64°42' W 064°00'0 0.0 310 / 26977.9 0.7-0.6
2018-Apr-18 03:00S 64°42' W 064°00'0 0.0 330 / 28975.2 1.4-0.0
2018-Apr-18 02:00S 64°42' W 064°00'0 0.0 010 / 28973.5 2.3 0.3
2018-Apr-18 01:00S 64°42' W 064°00'0 0.0 020 / 37972.3 2.8-0.0
2018-Apr-18 00:00S 64°42' W 064°00'0 0.0 030 / 41971.8 2.5-0.0
2018-Apr-17 23:00S 64°42' W 064°00'0 0.0 070 / 29972.5 1.7-0.8
2018-Apr-17 22:00S 64°42' W 064°00'0 0.0 090 / 23973.5 1.7-2.2
2018-Apr-17 21:00S 64°42' W 064°00'0 0.0 070 / 26974.8 3.3-2.8
2018-Apr-17 20:00S 64°42' W 064°00'0 0.0 050 / 29975.6 3.9-3.4
2018-Apr-17 19:00S 64°42' W 064°00'0 0.0 050 / 28976.5 3.7-3.5
2018-Apr-17 18:00S 64°42' W 064°00'0 0.0 050 / 22978.0 3.0-3.4 0.1
2018-Apr-17 17:00S 64°42' W 064°00'0 0.0 050 / 20979.1 3.2-3.7 0.1
2018-Apr-17 16:00S 64°42' W 064°00'7 6.5 070 / 15980.2 2.7-3.2 0.4
2018-Apr-17 15:00S 64°48' W 063°54'3 2.6 070 / 13981.7 2.3-1.9 0.4
2018-Apr-17 14:00S 64°48' W 063°48'1211.9 060 / 21982.8 1.3-1.4 0.4
2018-Apr-17 13:00S 64°42' W 063°24'1010.3 060 / 22983.7 1.3-1.6 0.3
2018-Apr-17 12:00S 64°42' W 063°00'1414.3 050 / 22985.5 1.0-1.1 0.3
2018-Apr-17 11:00S 64°30' W 062°42'1010.3 060 / 12987.0 0.6-0.3 0.1
2018-Apr-17 10:00S 64°30' W 062°18'1414.3 040 / 14987.6 0.5-0.2-0.0
2018-Apr-17 09:00S 64°18' W 062°00'8 7.9 030 / 23987.9 -0.0-0.5-0.2
2018-Apr-17 08:00S 64°12' W 061°48'1212.3 040 / 18988.9 -0.0-0.5-0.3
2018-Apr-17 07:00S 64°00' W 061°42'1313.1 040 / 15990.0 -0.1-0.6-0.2
2018-Apr-17 06:00S 63°48' W 061°30'7 6.6 030 / 13990.7 0.2-0.3-0.2
2018-Apr-17 05:00S 63°42' W 061°24'1212.0 040 / 10991.4 0.2-0.4-0.2
2018-Apr-17 04:00S 63°30' W 061°24'1212.3 020 / 8991.8 0.7-0.0 0.3
2018-Apr-17 03:00S 63°18' W 061°30'7 6.6 340 / 11992.4 1.1 0.4 0.8
2018-Apr-17 02:00S 63°12' W 061°36'   330 / 17992.4 1.1 0.4 0.9

Dump ship's entire track history